Time;durP1;ratioP1;P1;durP2;ratioP2;P2;SDS_P1;SDS_P2;PMS_P1;PMS_P2;Temp;Humidity;BMP_temperature;BMP_pressure;BME280_temperature;BME280_humidity;BME280_pressure;Samples;Min_cycle;Max_cycle;Signal;HPM_P1;HPM_P2
2023/10/14 00:01:16;;;;;;;7.50;3.10;;;15.30;99.90;;;;;;5016541;28;20036;-86
2023/10/14 00:03:45;;;;;;;8.70;3.10;;;15.30;99.90;;;;;;5015663;28;20034;-87
2023/10/14 00:06:16;;;;;;;8.32;3.10;;;15.20;99.90;;;;;;5018312;28;20140;-86
2023/10/14 00:08:58;;;;;;;8.20;3.22;;;15.20;99.90;;;;;;5017841;28;20026;-87
2023/10/14 00:11:46;;;;;;;8.02;2.78;;;15.20;99.90;;;;;;5015267;28;20100;-86
2023/10/14 00:14:18;;;;;;;6.68;3.42;;;15.20;99.90;;;;;;5014803;28;20065;-88
2023/10/14 00:16:51;;;;;;;7.20;3.20;;;15.20;99.90;;;;;;5017415;28;20021;-87
2023/10/14 00:19:22;;;;;;;9.70;3.15;;;15.20;99.90;;;;;;5017278;28;20025;-87
2023/10/14 00:21:49;;;;;;;5.43;2.60;;;15.20;99.90;;;;;;5016709;28;20696;-87
2023/10/14 00:24:25;;;;;;;9.85;2.60;;;15.20;99.90;;;;;;5020073;28;20052;-87
2023/10/14 00:26:52;;;;;;;8.07;2.70;;;15.20;99.90;;;;;;5020637;28;20084;-87
2023/10/14 00:29:20;;;;;;;8.15;2.75;;;15.10;99.90;;;;;;5021475;28;20100;-86
2023/10/14 00:31:51;;;;;;;11.45;3.55;;;15.10;99.90;;;;;;5025821;28;20057;-87
2023/10/14 00:34:25;;;;;;;12.90;3.30;;;15.10;99.90;;;;;;5018566;28;20087;-87
2023/10/14 00:36:55;;;;;;;4.85;2.65;;;15.10;99.90;;;;;;5019608;28;20087;-87
2023/10/14 00:39:27;;;;;;;11.23;3.20;;;15.10;99.90;;;;;;5017578;28;20087;-87
2023/10/14 00:41:53;;;;;;;8.27;2.75;;;15.10;99.90;;;;;;5018370;28;20108;-87
2023/10/14 00:44:20;;;;;;;9.55;3.45;;;15.10;99.90;;;;;;5017126;28;20030;-88
2023/10/14 00:46:48;;;;;;;8.85;3.70;;;15.00;99.90;;;;;;5018077;28;20043;-87
2023/10/14 00:49:18;;;;;;;9.50;2.90;;;15.00;99.90;;;;;;5018480;28;20041;-87
2023/10/14 00:51:49;;;;;;;6.38;3.05;;;15.00;99.90;;;;;;5029227;28;20052;-87
2023/10/14 00:54:51;;;;;;;7.63;2.75;;;15.00;99.90;;;;;;5024945;28;20041;-86
2023/10/14 00:57:20;;;;;;;8.93;3.25;;;15.00;99.90;;;;;;5018822;28;20112;-88
2023/10/14 00:59:51;;;;;;;5.88;2.72;;;14.90;99.90;;;;;;5023303;28;20033;-88
2023/10/14 01:02:29;;;;;;;11.40;3.38;;;14.80;99.90;;;;;;5019954;28;20033;-87
2023/10/14 01:04:55;;;;;;;9.02;3.63;;;14.70;99.90;;;;;;5018387;28;20029;-88
2023/10/14 01:07:21;;;;;;;8.27;2.83;;;14.60;99.90;;;;;;5018159;28;20127;-87
2023/10/14 01:09:53;;;;;;;9.82;3.00;;;14.50;99.90;;;;;;5019097;28;20037;-87
2023/10/14 01:12:26;;;;;;;8.48;2.88;;;14.50;99.90;;;;;;5020309;28;20030;-87
2023/10/14 01:14:53;;;;;;;10.20;3.35;;;14.40;99.90;;;;;;5023029;28;20029;-87
2023/10/14 01:17:31;;;;;;;7.68;2.60;;;14.40;99.90;;;;;;5027157;28;20045;-87
2023/10/14 01:22:40;;;;;;;7.13;3.15;;;14.20;99.90;;;;;;5021596;28;20128;-86
2023/10/14 01:25:12;;;;;;;8.77;2.95;;;14.20;99.90;;;;;;5015964;28;20053;-87
2023/10/14 01:27:38;;;;;;;8.85;3.20;;;14.20;99.90;;;;;;4999151;28;20082;-87
2023/10/14 01:30:10;;;;;;;10.18;3.67;;;14.20;99.90;;;;;;5017767;28;20071;-87
2023/10/14 01:37:58;;;;;;;6.20;3.03;;;14.30;99.90;;;;;;5017242;28;20108;-87
2023/10/14 01:40:37;;;;;;;8.65;3.00;;;14.30;99.90;;;;;;5016953;28;20025;-86
2023/10/14 01:43:06;;;;;;;7.22;2.88;;;14.40;99.90;;;;;;5016289;28;20061;-87
2023/10/14 01:45:40;;;;;;;7.43;3.10;;;14.50;99.90;;;;;;5017789;28;20022;-87
2023/10/14 01:50:46;;;;;;;8.88;3.30;;;14.70;99.90;;;;;;5016112;28;20113;-87
2023/10/14 01:53:17;;;;;;;5.85;2.90;;;14.80;99.90;;;;;;5016718;28;20030;-87
2023/10/14 01:55:43;;;;;;;7.80;3.20;;;14.90;99.90;;;;;;5017772;28;20456;-86
2023/10/14 01:58:29;;;;;;;7.05;3.03;;;15.00;99.90;;;;;;5018392;28;20022;-87
2023/10/14 02:03:41;;;;;;;8.00;3.28;;;15.10;99.90;;;;;;5022345;28;20120;-87
2023/10/14 02:06:11;;;;;;;12.48;3.10;;;15.20;99.90;;;;;;5022003;28;20095;-87
2023/10/14 02:08:37;;;;;;;7.18;3.13;;;15.20;99.90;;;;;;5020855;28;20099;-87
2023/10/14 02:11:04;;;;;;;7.65;2.97;;;15.30;99.90;;;;;;5021795;28;20168;-86
2023/10/14 02:13:29;;;;;;;7.05;3.58;;;15.30;99.90;;;;;;5021642;28;20405;-88
2023/10/14 02:15:59;;;;;;;8.07;3.03;;;15.30;99.90;;;;;;5021181;28;20033;-87
2023/10/14 02:18:25;;;;;;;7.03;3.13;;;15.40;99.90;;;;;;5029028;28;20112;-87
2023/10/14 02:21:05;;;;;;;8.50;3.20;;;15.40;99.90;;;;;;5028503;28;20120;-87
2023/10/14 02:23:44;;;;;;;10.23;3.33;;;15.50;99.90;;;;;;5022792;28;20030;-87
2023/10/14 02:26:24;;;;;;;7.07;3.20;;;15.50;99.90;;;;;;5020924;28;20512;-87
2023/10/14 02:28:52;;;;;;;8.20;3.00;;;15.50;99.90;;;;;;5020646;28;20061;-87
2023/10/14 02:31:18;;;;;;;7.60;3.60;;;15.50;99.90;;;;;;5018534;28;20065;-88
2023/10/14 02:33:47;;;;;;;8.68;2.90;;;15.50;99.90;;;;;;5021388;28;20038;-87
2023/10/14 02:36:17;;;;;;;7.18;2.70;;;15.50;99.90;;;;;;5022061;28;20040;-87
2023/10/14 02:38:48;;;;;;;8.18;3.05;;;15.50;99.90;;;;;;5021452;28;20036;-87
2023/10/14 02:41:16;;;;;;;8.45;3.38;;;15.60;99.90;;;;;;5020263;28;20048;-87
2023/10/14 02:43:42;;;;;;;7.30;2.78;;;15.60;99.90;;;;;;5021182;28;20033;-87
2023/10/14 02:46:11;;;;;;;6.53;3.00;;;15.60;99.90;;;;;;5017761;28;20038;-88
2023/10/14 02:48:52;;;;;;;9.90;3.00;;;15.60;99.90;;;;;;5021400;28;20048;-87
2023/10/14 02:51:29;;;;;;;7.15;3.72;;;15.60;99.90;;;;;;5020095;28;20060;-88
2023/10/14 02:54:04;;;;;;;10.65;3.25;;;15.60;99.90;;;;;;5020533;28;20053;-87
2023/10/14 02:59:19;;;;;;;8.95;3.67;;;15.70;99.90;;;;;;5025734;28;20056;-87
2023/10/14 03:01:51;;;;;;;8.15;3.20;;;15.80;99.90;;;;;;5021227;28;20029;-87
2023/10/14 03:04:19;;;;;;;9.88;3.53;;;15.80;99.90;;;;;;5022962;28;20047;-87
2023/10/14 03:06:49;;;;;;;8.43;3.70;;;15.80;99.90;;;;;;5026405;28;20489;-87
2023/10/14 03:09:20;;;;;;;6.47;3.22;;;15.90;99.90;;;;;;5020606;28;20416;-88
2023/10/14 03:11:48;;;;;;;9.27;3.22;;;15.90;99.90;;;;;;5020092;28;20025;-88
2023/10/14 03:14:15;;;;;;;9.77;3.17;;;15.90;99.90;;;;;;5020579;28;20561;-87
2023/10/14 03:16:41;;;;;;;9.88;3.00;;;16.00;99.90;;;;;;5020620;28;20104;-87
2023/10/14 03:19:07;;;;;;;7.70;3.38;;;16.10;99.90;;;;;;5020895;28;20030;-89
2023/10/14 03:21:34;;;;;;;7.38;3.00;;;16.20;99.90;;;;;;5018684;28;21000;-87
2023/10/14 03:24:00;;;;;;;7.75;3.30;;;16.20;99.90;;;;;;5020480;28;20026;-88
2023/10/14 03:26:32;;;;;;;7.78;2.95;;;16.30;99.90;;;;;;5020600;28;20028;-88
2023/10/14 03:29:03;;;;;;;10.75;2.92;;;16.40;99.90;;;;;;5020230;28;21442;-88
2023/10/14 03:31:35;;;;;;;9.65;3.20;;;16.50;99.90;;;;;;5020316;28;20436;-88
2023/10/14 03:34:02;;;;;;;6.30;3.03;;;16.50;99.90;;;;;;5019576;28;20030;-87
2023/10/14 03:36:29;;;;;;;9.85;3.60;;;16.60;99.90;;;;;;5020291;28;20033;-88
2023/10/14 03:38:56;;;;;;;7.97;3.25;;;16.70;99.90;;;;;;5020662;28;20040;-87
2023/10/14 03:41:23;;;;;;;7.35;2.88;;;16.80;99.90;;;;;;5020868;28;20038;-88
2023/10/14 03:46:42;;;;;;;13.47;3.60;;;16.90;99.90;;;;;;5019542;28;20104;-88
2023/10/14 03:49:25;;;;;;;7.85;3.80;;;16.90;99.90;;;;;;5028751;28;21272;-86
2023/10/14 03:51:56;;;;;;;7.72;3.45;;;17.10;99.90;;;;;;5021070;28;20091;-88
2023/10/14 03:54:30;;;;;;;9.52;3.53;;;17.10;99.90;;;;;;5018947;28;20045;-88
2023/10/14 03:57:03;;;;;;;7.35;3.30;;;17.10;99.90;;;;;;5022134;28;20034;-87
2023/10/14 03:59:33;;;;;;;8.02;3.72;;;17.20;99.90;;;;;;5020991;28;20037;-88
2023/10/14 04:02:01;;;;;;;11.02;3.40;;;17.20;99.90;;;;;;5019012;28;20048;-89
2023/10/14 04:04:29;;;;;;;12.15;3.30;;;17.20;99.90;;;;;;5019087;28;20095;-87
2023/10/14 04:09:36;;;;;;;13.48;4.30;;;17.50;99.90;;;;;;5020913;28;20491;-87
2023/10/14 04:12:07;;;;;;;9.30;3.70;;;17.60;99.90;;;;;;5024550;28;20673;-87
2023/10/14 04:14:35;;;;;;;6.68;3.17;;;17.70;99.90;;;;;;5031290;28;20112;-89
2023/10/14 04:17:10;;;;;;;9.30;4.45;;;17.80;99.90;;;;;;5029914;28;20026;-88
2023/10/14 04:20:13;;;;;;;7.70;3.58;;;17.90;99.90;;;;;;5022174;28;20026;-88
2023/10/14 04:22:39;;;;;;;13.63;3.08;;;17.90;99.90;;;;;;5017754;28;20091;-88
2023/10/14 04:30:21;;;;;;;8.68;3.78;;;18.10;99.90;;;;;;5019185;28;20515;-86
2023/10/14 04:33:04;;;;;;;7.45;3.22;;;18.10;99.90;;;;;;5017612;28;21108;-87
2023/10/14 04:35:33;;;;;;;8.27;3.55;;;18.20;99.90;;;;;;5017092;28;20041;-88
2023/10/14 04:38:16;;;;;;;8.95;4.00;;;18.30;99.90;;;;;;5016960;28;20033;-89
2023/10/14 04:40:53;;;;;;;8.93;3.53;;;18.50;99.90;;;;;;5018387;28;20021;-87
2023/10/14 04:45:52;;;;;;;9.05;3.75;;;18.70;99.90;;;;;;5013455;28;20885;-88
2023/10/14 04:51:06;;;;;;;8.75;3.97;;;18.80;99.90;;;;;;5014394;28;20560;-88
2023/10/14 04:53:32;;;;;;;8.00;3.35;;;18.80;99.90;;;;;;5017772;28;20038;-86
2023/10/14 04:56:01;;;;;;;9.40;4.10;;;18.80;99.90;;;;;;5016855;28;20030;-88
2023/10/14 04:58:27;;;;;;;13.50;3.42;;;18.80;99.90;;;;;;5016734;28;20032;-88
2023/10/14 05:00:57;;;;;;;13.00;3.65;;;18.80;99.90;;;;;;5014733;28;20029;-87
2023/10/14 05:03:22;;;;;;;7.32;3.45;;;18.90;99.90;;;;;;5014873;28;20026;-85
2023/10/14 05:05:51;;;;;;;10.35;3.72;;;18.90;99.90;;;;;;5016270;28;20160;-87
2023/10/14 05:08:21;;;;;;;9.68;3.58;;;18.90;99.90;;;;;;5017920;28;20456;-85
2023/10/14 05:10:50;;;;;;;10.65;4.20;;;18.90;99.90;;;;;;5019739;28;20035;-87
2023/10/14 05:13:25;;;;;;;8.13;3.90;;;18.90;99.90;;;;;;5015611;28;20045;-87
2023/10/14 05:16:03;;;;;;;13.13;3.92;;;18.90;99.90;;;;;;5021447;28;20164;-88
2023/10/14 05:18:29;;;;;;;13.73;3.67;;;18.90;99.90;;;;;;5013708;28;20117;-89
2023/10/14 05:21:35;;;;;;;9.88;3.75;;;18.90;99.90;;;;;;5013083;28;20582;-89
2023/10/14 05:23:59;;;;;;;8.30;3.58;;;18.90;99.90;;;;;;5015829;28;20036;-90
2023/10/14 05:26:27;;;;;;;12.02;4.13;;;18.80;99.90;;;;;;5015921;28;20030;-87
2023/10/14 05:28:53;;;;;;;11.02;4.30;;;18.90;99.90;;;;;;5015958;28;20052;-89
2023/10/14 05:31:19;;;;;;;8.80;3.70;;;18.90;99.90;;;;;;5016181;28;20025;-88
2023/10/14 05:33:44;;;;;;;9.38;4.45;;;18.90;99.90;;;;;;5016216;28;20037;-88
2023/10/14 05:36:10;;;;;;;8.18;3.67;;;18.90;99.90;;;;;;5020189;28;20025;-88
2023/10/14 05:38:35;;;;;;;8.00;4.13;;;18.90;99.90;;;;;;5019389;28;20960;-89
2023/10/14 05:41:06;;;;;;;10.35;4.85;;;18.90;99.90;;;;;;5019200;28;20049;-91
2023/10/14 05:43:32;;;;;;;9.73;4.47;;;18.90;99.90;;;;;;5019025;28;20076;-87
2023/10/14 05:45:57;;;;;;;11.73;4.57;;;18.90;99.90;;;;;;5019646;28;20025;-89
2023/10/14 05:48:30;;;;;;;13.05;5.35;;;18.90;99.90;;;;;;5019121;28;20137;-89
2023/10/14 05:50:56;;;;;;;10.27;4.47;;;19.00;99.90;;;;;;5019202;28;20038;-89
2023/10/14 05:53:25;;;;;;;15.02;4.50;;;19.00;99.90;;;;;;5001161;28;20041;-89
2023/10/14 05:55:58;;;;;;;10.23;4.35;;;19.00;99.90;;;;;;5017704;28;20044;-88
2023/10/14 05:58:28;;;;;;;7.45;4.85;;;19.10;99.90;;;;;;5021741;28;20026;-88
2023/10/14 06:00:55;;;;;;;12.20;4.60;;;19.10;99.90;;;;;;5023303;28;20048;-90
2023/10/14 06:03:20;;;;;;;13.43;4.68;;;19.10;99.90;;;;;;5020837;28;20048;-89
2023/10/14 06:05:46;;;;;;;13.88;5.18;;;19.00;99.90;;;;;;5021726;28;20029;-89
2023/10/14 06:08:16;;;;;;;12.40;5.60;;;18.90;99.90;;;;;;5026329;28;20029;-90
2023/10/14 06:10:42;;;;;;;12.02;4.53;;;18.90;99.90;;;;;;5026291;28;20040;-90
2023/10/14 06:13:13;;;;;;;13.63;4.85;;;18.90;99.90;;;;;;5021947;28;20453;-88
2023/10/14 06:15:40;;;;;;;11.88;4.60;;;18.90;99.90;;;;;;5016621;28;20103;-88
2023/10/14 06:18:08;;;;;;;9.43;4.60;;;18.90;99.90;;;;;;5016195;28;20087;-90
2023/10/14 06:20:35;;;;;;;9.65;4.40;;;19.00;99.90;;;;;;5019477;28;20017;-83
2023/10/14 06:23:01;;;;;;;8.25;4.93;;;19.00;99.90;;;;;;5020680;28;20063;-80
2023/10/14 06:25:29;;;;;;;10.13;4.60;;;19.00;99.90;;;;;;5014658;28;20034;-83
2023/10/14 06:27:55;;;;;;;9.30;4.47;;;19.00;99.90;;;;;;5021013;28;20091;-80
2023/10/14 06:30:21;;;;;;;23.38;5.00;;;19.00;99.90;;;;;;5022072;28;20029;-82
2023/10/14 06:32:48;;;;;;;23.48;4.28;;;19.00;99.90;;;;;;5019515;28;20037;-91
2023/10/14 06:35:17;;;;;;;13.25;4.32;;;19.00;99.90;;;;;;5000665;28;20029;-89
2023/10/14 06:37:46;;;;;;;9.75;3.90;;;19.00;99.90;;;;;;5000506;28;20658;-91
2023/10/14 06:40:18;;;;;;;10.45;4.07;;;18.90;99.90;;;;;;5017290;28;20055;-88
2023/10/14 06:42:45;;;;;;;8.00;4.40;;;19.00;99.90;;;;;;5010073;28;20068;-88
2023/10/14 06:45:14;;;;;;;8.48;4.88;;;19.00;99.90;;;;;;5015637;28;20025;-88
2023/10/14 06:47:56;;;;;;;8.20;4.30;;;18.90;99.90;;;;;;5017715;28;20036;-89
2023/10/14 06:50:25;;;;;;;12.82;4.03;;;18.90;99.90;;;;;;5019395;28;20044;-89
2023/10/14 06:53:00;;;;;;;8.73;3.70;;;18.90;99.90;;;;;;5020099;28;20060;-89
2023/10/14 06:55:37;;;;;;;10.55;4.63;;;18.90;99.90;;;;;;5015302;28;20044;-87
2023/10/14 06:58:05;;;;;;;7.15;4.25;;;18.90;99.90;;;;;;5018105;28;20037;-84
2023/10/14 07:00:32;;;;;;;8.07;3.80;;;18.80;99.90;;;;;;5018211;28;20041;-87
2023/10/14 07:03:01;;;;;;;13.18;4.03;;;18.90;99.90;;;;;;5020209;28;20053;-88
2023/10/14 07:05:28;;;;;;;8.60;3.92;;;18.90;99.90;;;;;;5024422;28;20025;-85
2023/10/14 07:07:58;;;;;;;10.85;4.03;;;18.90;99.90;;;;;;5020011;28;20025;-85
2023/10/14 07:10:27;;;;;;;11.07;4.25;;;18.90;99.90;;;;;;5030176;28;20029;-88
2023/10/14 07:13:00;;;;;;;6.22;3.78;;;18.90;99.90;;;;;;5039479;28;20033;-88
2023/10/14 07:15:31;;;;;;;10.82;4.00;;;18.90;99.90;;;;;;5032931;28;20046;-83
2023/10/14 07:17:58;;;;;;;7.63;3.95;;;18.90;99.90;;;;;;5018854;28;20026;-89
2023/10/14 07:20:25;;;;;;;8.43;3.80;;;18.90;99.90;;;;;;5015112;28;20585;-85
2023/10/14 07:22:50;;;;;;;9.27;3.40;;;18.90;99.90;;;;;;5017841;28;20025;-88
2023/10/14 07:25:18;;;;;;;9.77;3.67;;;18.90;99.90;;;;;;5013185;28;20083;-88
2023/10/14 07:27:44;;;;;;;12.98;4.00;;;19.00;99.90;;;;;;5014922;28;20091;-87
2023/10/14 07:30:15;;;;;;;6.50;3.35;;;19.00;99.90;;;;;;5015081;28;20083;-87
2023/10/14 07:32:43;;;;;;;9.10;3.13;;;19.00;99.90;;;;;;5015454;28;20257;-89
2023/10/14 07:35:13;;;;;;;9.15;3.67;;;19.00;99.90;;;;;;5012886;28;20116;-88
2023/10/14 07:37:48;;;;;;;6.85;4.00;;;19.00;99.90;;;;;;5017055;28;20748;-87
2023/10/14 07:40:24;;;;;;;7.60;3.42;;;19.00;99.90;;;;;;5019077;28;20030;-87
2023/10/14 07:42:55;;;;;;;11.23;3.35;;;19.00;99.90;;;;;;5017366;28;20576;-86
2023/10/14 07:45:33;;;;;;;10.20;3.28;;;19.00;99.90;;;;;;5017409;28;20037;-88
2023/10/14 07:47:59;;;;;;;11.93;3.92;;;19.00;99.90;;;;;;5015215;28;20534;-87
2023/10/14 07:50:31;;;;;;;9.65;3.80;;;19.00;99.90;;;;;;5015827;28;20108;-86
2023/10/14 07:53:07;;;;;;;5.85;3.05;;;19.00;99.90;;;;;;5014144;28;20037;-87
2023/10/14 07:55:39;;;;;;;8.65;3.45;;;19.00;99.90;;;;;;5013053;28;20022;-88
2023/10/14 07:58:08;;;;;;;8.82;3.72;;;19.00;99.90;;;;;;5015093;28;20038;-88
2023/10/14 08:00:41;;;;;;;6.72;3.30;;;19.10;99.90;;;;;;5013457;28;20030;-87
2023/10/14 08:03:09;;;;;;;6.32;3.53;;;19.00;99.90;;;;;;5014903;28;20171;-89
2023/10/14 08:05:38;;;;;;;8.90;3.85;;;18.90;99.90;;;;;;5010925;28;20563;-88
2023/10/14 08:08:06;;;;;;;6.22;3.67;;;18.90;99.90;;;;;;5013665;28;20037;-87
2023/10/14 08:10:32;;;;;;;8.20;3.63;;;18.90;99.90;;;;;;5014021;28;20073;-85
2023/10/14 08:13:01;;;;;;;8.30;3.40;;;18.90;99.90;;;;;;5014360;28;20065;-90
2023/10/14 08:15:29;;;;;;;7.22;3.95;;;18.90;99.90;;;;;;5012570;28;20038;-89
2023/10/14 08:17:58;;;;;;;8.50;3.78;;;18.90;99.90;;;;;;5013077;28;20119;-87
2023/10/14 08:20:24;;;;;;;10.38;4.18;;;19.00;99.90;;;;;;5012461;28;20057;-85
2023/10/14 08:22:49;;;;;;;8.05;3.42;;;19.00;99.90;;;;;;5012238;28;20133;-79
2023/10/14 08:25:19;;;;;;;8.52;3.75;;;19.10;99.90;;;;;;5011872;28;20496;-79
2023/10/14 08:27:46;;;;;;;11.68;3.92;;;19.10;99.90;;;;;;5015601;28;20021;-86
2023/10/14 08:30:13;;;;;;;7.68;3.78;;;19.10;99.90;;;;;;5010688;28;20052;-93
2023/10/14 08:32:42;;;;;;;7.97;3.95;;;19.20;99.90;;;;;;5012999;28;20055;-91
2023/10/14 08:35:15;;;;;;;10.70;3.58;;;19.20;99.90;;;;;;5013032;28;20476;-92
2023/10/14 08:37:47;;;;;;;11.02;4.10;;;19.20;99.90;;;;;;5012803;28;20789;-91
2023/10/14 08:40:17;;;;;;;11.10;4.47;;;19.30;99.90;;;;;;5014487;28;20041;-87
2023/10/14 08:42:51;;;;;;;12.65;4.13;;;19.20;99.90;;;;;;5013634;28;20068;-88
2023/10/14 08:45:19;;;;;;;6.55;4.10;;;19.20;99.90;;;;;;5012250;28;20036;-88
2023/10/14 08:47:47;;;;;;;14.45;4.40;;;19.20;99.90;;;;;;5012516;28;20025;-88
2023/10/14 08:50:15;;;;;;;12.68;3.67;;;19.20;99.90;;;;;;5013869;28;20075;-85
2023/10/14 08:52:45;;;;;;;11.25;4.43;;;19.10;99.90;;;;;;5012673;28;20033;-86
2023/10/14 08:55:15;;;;;;;12.07;4.38;;;19.10;99.90;;;;;;5014398;28;20041;-88
2023/10/14 08:57:44;;;;;;;10.32;4.85;;;19.10;99.90;;;;;;5014175;28;20033;-89
2023/10/14 09:00:20;;;;;;;9.27;3.83;;;19.10;99.90;;;;;;5014040;28;20157;-86
2023/10/14 09:02:54;;;;;;;10.50;4.50;;;19.10;99.90;;;;;;5013923;28;20047;-88
2023/10/14 09:05:21;;;;;;;9.98;4.50;;;19.10;99.90;;;;;;5014584;28;20025;-92
2023/10/14 09:07:51;;;;;;;12.10;5.05;;;19.10;99.90;;;;;;5014237;28;20033;-90
2023/10/14 09:10:19;;;;;;;17.73;5.50;;;19.10;99.90;;;;;;5016000;28;20034;-90
2023/10/14 09:13:05;;;;;;;9.25;4.65;;;19.10;99.90;;;;;;5017464;28;20411;-90
2023/10/14 09:15:32;;;;;;;9.88;4.30;;;19.10;99.90;;;;;;5017650;28;20121;-90
2023/10/14 09:17:58;;;;;;;16.83;4.75;;;19.20;99.90;;;;;;5016237;28;20049;-88
2023/10/14 09:20:31;;;;;;;8.85;4.15;;;19.20;99.90;;;;;;5031930;28;20030;-89
2023/10/14 09:23:25;;;;;;;13.27;4.45;;;19.20;99.90;;;;;;5020938;28;20476;-89
2023/10/14 09:26:01;;;;;;;10.32;4.10;;;19.10;99.90;;;;;;5015682;28;20514;-88
2023/10/14 09:28:29;;;;;;;9.57;4.47;;;19.10;99.90;;;;;;5016715;28;20120;-88
2023/10/14 09:30:57;;;;;;;10.48;4.65;;;19.00;99.90;;;;;;5020499;28;20523;-79
2023/10/14 09:33:28;;;;;;;10.38;4.30;;;19.00;99.90;;;;;;5016523;28;20042;-80
2023/10/14 09:35:58;;;;;;;8.15;4.35;;;19.00;99.90;;;;;;5019123;28;20037;-80
2023/10/14 09:38:24;;;;;;;14.23;4.45;;;18.90;99.90;;;;;;5018599;28;20029;-79
2023/10/14 09:40:57;;;;;;;10.00;4.60;;;19.00;99.90;;;;;;5015579;28;20030;-90
2023/10/14 09:43:25;;;;;;;9.60;4.10;;;19.10;99.90;;;;;;5014748;28;20030;-90
2023/10/14 09:45:55;;;;;;;8.07;4.03;;;19.10;99.90;;;;;;5016000;28;20025;-85
2023/10/14 09:48:29;;;;;;;8.98;4.50;;;19.00;99.90;;;;;;5017127;28;20045;-85
2023/10/14 09:51:00;;;;;;;8.65;3.70;;;19.00;99.90;;;;;;5016036;28;20026;-89
2023/10/14 09:53:32;;;;;;;11.93;4.03;;;19.00;99.90;;;;;;5015346;28;20048;-87
2023/10/14 09:56:08;;;;;;;9.80;4.18;;;19.00;99.90;;;;;;5020137;28;20033;-91
2023/10/14 09:58:42;;;;;;;11.07;4.10;;;19.10;99.90;;;;;;5023504;28;20036;-86
2023/10/14 10:01:14;;;;;;;10.93;3.97;;;19.10;99.90;;;;;;5026729;28;20037;-88
2023/10/14 10:04:06;;;;;;;10.90;4.20;;;19.20;99.90;;;;;;5023702;28;20185;-88
2023/10/14 10:06:49;;;;;;;9.88;4.45;;;19.20;99.90;;;;;;5032869;28;20045;-87
2023/10/14 10:09:38;;;;;;;11.07;4.50;;;19.30;99.90;;;;;;5042492;28;20018;-85
2023/10/14 10:12:08;;;;;;;7.43;4.15;;;19.40;99.90;;;;;;5037458;28;20029;-87
2023/10/14 10:14:42;;;;;;;9.23;4.20;;;19.30;99.90;;;;;;5015683;28;20134;-83
2023/10/14 10:17:11;;;;;;;11.30;4.10;;;19.30;99.90;;;;;;5013921;28;20025;-84
2023/10/14 10:20:25;;;;;;;11.13;4.07;;;19.20;99.90;;;;;;5017546;28;20041;-86
2023/10/14 10:22:51;;;;;;;10.63;4.00;;;19.20;99.90;;;;;;5018307;28;20104;-88
2023/10/14 10:25:52;;;;;;;11.20;3.80;;;19.10;99.90;;;;;;5018290;28;20057;-82
2023/10/14 10:28:26;;;;;;;10.50;3.47;;;19.00;99.90;;;;;;5019078;28;20030;-85
2023/10/14 10:30:54;;;;;;;6.78;3.95;;;18.90;99.90;;;;;;5017670;28;20026;-85
2023/10/14 10:33:19;;;;;;;8.60;3.80;;;18.90;99.90;;;;;;5017900;28;20052;-85
2023/10/14 10:36:03;;;;;;;11.85;4.20;;;18.90;99.90;;;;;;5017772;28;20022;-88
2023/10/14 10:38:36;;;;;;;14.63;4.53;;;18.90;99.90;;;;;;5019844;28;20034;-85
2023/10/14 10:41:23;;;;;;;9.80;3.90;;;19.00;99.90;;;;;;5017688;28;20026;-86
2023/10/14 10:43:50;;;;;;;11.98;3.85;;;19.00;99.90;;;;;;5018769;28;20400;-86
2023/10/14 10:46:40;;;;;;;7.93;3.45;;;19.00;99.90;;;;;;5016314;28;20029;-86
2023/10/14 10:49:07;;;;;;;9.90;3.85;;;19.20;99.90;;;;;;5018903;28;20029;-86
2023/10/14 10:51:34;;;;;;;10.90;3.90;;;19.20;99.90;;;;;;5019558;28;20025;-85
2023/10/14 10:54:01;;;;;;;12.45;3.80;;;19.20;99.90;;;;;;5018114;28;20042;-87
2023/10/14 10:56:32;;;;;;;9.90;3.75;;;19.30;99.90;;;;;;5017927;28;20107;-87
2023/10/14 10:58:59;;;;;;;10.65;4.38;;;19.30;99.90;;;;;;5017158;28;20026;-87
2023/10/14 11:01:31;;;;;;;16.25;4.03;;;19.40;99.90;;;;;;5021709;28;20140;-78
2023/10/14 11:03:58;;;;;;;10.93;3.42;;;19.50;99.90;;;;;;5016233;28;20431;-79
2023/10/14 11:06:25;;;;;;;8.40;3.65;;;19.50;99.90;;;;;;5017789;28;20089;-78
2023/10/14 11:08:52;;;;;;;11.05;3.72;;;19.50;99.90;;;;;;5017326;28;20040;-79
2023/10/14 11:11:17;;;;;;;10.63;4.10;;;19.50;99.90;;;;;;5017597;28;20109;-87
2023/10/14 11:13:43;;;;;;;10.63;3.50;;;19.50;99.90;;;;;;5017587;28;20778;-87
2023/10/14 11:16:15;;;;;;;11.82;3.83;;;19.50;99.90;;;;;;5016246;28;20108;-88
2023/10/14 11:18:48;;;;;;;12.93;4.30;;;19.60;99.90;;;;;;5015960;28;20021;-88
2023/10/14 11:21:16;;;;;;;10.82;3.40;;;19.70;99.90;;;;;;5014081;28;20044;-88
2023/10/14 11:23:43;;;;;;;9.45;3.58;;;19.80;99.90;;;;;;5015054;28;20030;-84
2023/10/14 11:26:11;;;;;;;8.07;3.03;;;19.90;99.90;;;;;;5016699;28;20021;-84
2023/10/14 11:28:38;;;;;;;9.95;3.70;;;20.00;99.90;;;;;;5016114;28;20080;-84
2023/10/14 11:31:08;;;;;;;8.55;3.28;;;20.00;99.90;;;;;;5017095;28;20026;-84
2023/10/14 11:33:37;;;;;;;9.10;3.25;;;20.10;99.90;;;;;;5018082;28;20047;-82
2023/10/14 11:36:04;;;;;;;7.13;2.92;;;20.20;99.90;;;;;;5021919;28;20040;-85
2023/10/14 11:38:31;;;;;;;9.90;3.03;;;20.20;99.90;;;;;;5018711;28;20068;-83
2023/10/14 11:40:58;;;;;;;7.60;2.72;;;20.10;99.90;;;;;;5021878;28;20033;-83
2023/10/14 11:43:24;;;;;;;7.28;2.90;;;20.10;99.90;;;;;;5021137;28;20030;-82
2023/10/14 11:45:54;;;;;;;4.53;2.40;;;20.10;99.90;;;;;;5019609;28;20168;-81
2023/10/14 11:48:24;;;;;;;7.07;2.38;;;20.10;99.90;;;;;;5018555;28;20060;-83
2023/10/14 11:51:02;;;;;;;9.63;3.05;;;20.10;99.90;;;;;;5019338;28;20153;-83
2023/10/14 11:53:33;;;;;;;7.75;2.42;;;20.20;99.90;;;;;;5018774;28;20064;-82
2023/10/14 11:56:00;;;;;;;10.35;2.90;;;20.30;99.90;;;;;;5019941;28;20033;-84
2023/10/14 11:58:31;;;;;;;7.18;2.40;;;20.30;99.90;;;;;;5017314;28;20052;-84
2023/10/14 12:00:58;;;;;;;9.43;2.45;;;20.20;99.90;;;;;;5015330;28;20063;-83
2023/10/14 12:03:25;;;;;;;6.57;2.20;;;20.30;99.90;;;;;;5015722;28;20073;-84
2023/10/14 12:05:58;;;;;;;6.47;2.40;;;20.40;99.90;;;;;;5022183;28;20041;-84
2023/10/14 12:08:27;;;;;;;7.78;2.85;;;20.60;99.90;;;;;;5015570;28;20041;-83
2023/10/14 12:10:53;;;;;;;8.70;2.80;;;20.70;99.90;;;;;;4996010;28;20909;-82
2023/10/14 12:13:19;;;;;;;7.07;2.65;;;20.80;99.90;;;;;;5015353;28;20911;-78
2023/10/14 12:15:46;;;;;;;6.35;2.65;;;20.70;99.90;;;;;;5015202;28;20021;-78
2023/10/14 12:18:14;;;;;;;5.18;2.35;;;20.70;99.90;;;;;;5016761;28;20029;-80
2023/10/14 12:20:45;;;;;;;9.52;3.13;;;20.70;99.90;;;;;;5018589;28;20052;-80
2023/10/14 12:23:11;;;;;;;7.88;2.70;;;20.70;99.90;;;;;;5016597;28;20038;-79
2023/10/14 12:25:37;;;;;;;6.43;2.72;;;20.60;99.90;;;;;;5017183;28;20514;-81
2023/10/14 12:28:03;;;;;;;10.65;2.78;;;20.60;99.90;;;;;;5015653;28;20841;-80
2023/10/14 12:30:39;;;;;;;6.75;2.40;;;20.50;99.90;;;;;;5018371;28;20025;-80
2023/10/14 12:33:05;;;;;;;5.53;2.85;;;20.40;99.90;;;;;;5019222;28;20156;-81
2023/10/14 12:35:39;;;;;;;9.02;2.85;;;20.40;99.90;;;;;;5017752;28;20030;-80
2023/10/14 12:38:11;;;;;;;7.03;2.95;;;20.40;99.90;;;;;;5016767;28;20075;-78
2023/10/14 12:40:37;;;;;;;9.75;3.08;;;20.40;99.90;;;;;;5019503;28;20089;-81
2023/10/14 12:43:05;;;;;;;6.68;2.20;;;20.40;99.90;;;;;;5015012;28;20496;-80
2023/10/14 12:45:32;;;;;;;7.78;2.90;;;20.30;99.90;;;;;;5015911;28;20494;-79
2023/10/14 12:48:09;;;;;;;12.55;3.00;;;20.20;99.90;;;;;;5015897;28;20327;-84
2023/10/14 12:50:40;;;;;;;7.85;2.92;;;20.00;99.90;;;;;;5012247;28;20417;-86
2023/10/14 12:53:08;;;;;;;5.03;2.75;;;19.90;99.90;;;;;;5012852;28;20085;-85
2023/10/14 12:55:39;;;;;;;7.65;3.15;;;19.70;99.90;;;;;;5014114;28;20017;-89
2023/10/14 12:58:04;;;;;;;8.43;3.75;;;19.60;99.90;;;;;;5014764;28;20037;-81
2023/10/14 13:00:30;;;;;;;14.85;3.90;;;19.40;99.90;;;;;;5012755;28;20026;-86
2023/10/14 13:02:57;;;;;;;6.85;3.45;;;19.30;99.90;;;;;;5023450;28;20034;-85
2023/10/14 13:05:25;;;;;;;9.10;3.70;;;19.10;99.90;;;;;;5032321;28;20069;-85
2023/10/14 13:07:52;;;;;;;6.55;3.40;;;18.90;99.90;;;;;;5035800;28;20033;-88
2023/10/14 13:10:19;;;;;;;6.65;3.60;;;18.70;99.90;;;;;;5014983;28;20030;-86
2023/10/14 13:12:49;;;;;;;6.28;2.90;;;18.40;99.90;;;;;;5013557;28;20041;-86
2023/10/14 13:15:16;;;;;;;8.40;3.45;;;18.30;99.90;;;;;;5012365;28;20021;-85
2023/10/14 13:17:43;;;;;;;6.38;3.58;;;18.20;99.90;;;;;;5012247;28;20385;-85
2023/10/14 13:20:08;;;;;;;8.45;3.10;;;18.10;99.90;;;;;;5013177;28;20029;-84
2023/10/14 13:22:34;;;;;;;7.80;2.90;;;18.00;99.90;;;;;;5015123;28;20083;-82
2023/10/14 13:25:01;;;;;;;5.97;3.33;;;18.00;99.90;;;;;;5015623;28;20033;-83
2023/10/14 13:27:27;;;;;;;5.68;2.90;;;18.00;99.90;;;;;;5014570;28;20088;-82
2023/10/14 13:29:53;;;;;;;10.18;3.47;;;18.00;99.90;;;;;;5014675;28;20033;-82
2023/10/14 13:32:24;;;;;;;9.07;3.60;;;18.10;99.90;;;;;;5013676;28;20044;-84